sensor_id;sensor_type;location;lat;lon;timestamp;P1;durP1;ratioP1;P2;durP2;ratioP2
17363;SDS011;8799;43.594;13.526;2022-07-06T00:01:08;6.80;;;3.37;;
17363;SDS011;8799;43.594;13.526;2022-07-06T00:03:36;6.73;;;3.53;;
17363;SDS011;8799;43.594;13.526;2022-07-06T00:06:05;5.10;;;3.13;;
17363;SDS011;8799;43.594;13.526;2022-07-06T00:08:33;4.83;;;3.10;;
17363;SDS011;8799;43.594;13.526;2022-07-06T00:11:06;7.37;;;3.10;;
17363;SDS011;8799;43.594;13.526;2022-07-06T00:13:34;7.13;;;3.37;;
17363;SDS011;8799;43.594;13.526;2022-07-06T00:16:03;6.13;;;3.50;;
17363;SDS011;8799;43.594;13.526;2022-07-06T00:18:31;7.07;;;3.53;;
17363;SDS011;8799;43.594;13.526;2022-07-06T00:20:59;4.27;;;3.17;;
17363;SDS011;8799;43.594;13.526;2022-07-06T00:23:27;5.07;;;3.33;;
17363;SDS011;8799;43.594;13.526;2022-07-06T00:25:55;6.47;;;3.33;;
17363;SDS011;8799;43.594;13.526;2022-07-06T00:28:25;8.83;;;3.23;;
17363;SDS011;8799;43.594;13.526;2022-07-06T00:30:53;4.47;;;3.23;;
17363;SDS011;8799;43.594;13.526;2022-07-06T00:33:21;6.33;;;3.47;;
17363;SDS011;8799;43.594;13.526;2022-07-06T00:35:49;5.10;;;3.07;;
17363;SDS011;8799;43.594;13.526;2022-07-06T00:38:17;5.27;;;3.17;;
17363;SDS011;8799;43.594;13.526;2022-07-06T00:40:45;5.37;;;3.10;;
17363;SDS011;8799;43.594;13.526;2022-07-06T00:43:13;6.23;;;3.20;;
17363;SDS011;8799;43.594;13.526;2022-07-06T00:45:43;6.30;;;3.60;;
17363;SDS011;8799;43.594;13.526;2022-07-06T00:48:10;7.10;;;3.80;;
17363;SDS011;8799;43.594;13.526;2022-07-06T00:50:39;6.83;;;3.73;;
17363;SDS011;8799;43.594;13.526;2022-07-06T00:53:07;9.67;;;3.63;;
17363;SDS011;8799;43.594;13.526;2022-07-06T00:55:37;4.83;;;3.00;;
17363;SDS011;8799;43.594;13.526;2022-07-06T00:58:06;6.03;;;3.50;;
17363;SDS011;8799;43.594;13.526;2022-07-06T01:00:34;4.17;;;2.90;;
17363;SDS011;8799;43.594;13.526;2022-07-06T01:03:04;4.17;;;3.30;;
17363;SDS011;8799;43.594;13.526;2022-07-06T01:05:32;5.80;;;3.30;;
17363;SDS011;8799;43.594;13.526;2022-07-06T01:08:00;3.37;;;2.63;;
17363;SDS011;8799;43.594;13.526;2022-07-06T01:10:27;3.40;;;2.83;;
17363;SDS011;8799;43.594;13.526;2022-07-06T01:12:55;4.93;;;3.63;;
17363;SDS011;8799;43.594;13.526;2022-07-06T01:15:24;6.17;;;4.00;;
17363;SDS011;8799;43.594;13.526;2022-07-06T01:17:52;5.40;;;3.27;;
17363;SDS011;8799;43.594;13.526;2022-07-06T01:20:22;6.67;;;3.43;;
17363;SDS011;8799;43.594;13.526;2022-07-06T01:22:52;7.90;;;3.43;;
17363;SDS011;8799;43.594;13.526;2022-07-06T01:25:21;7.67;;;3.40;;
17363;SDS011;8799;43.594;13.526;2022-07-06T01:27:49;5.77;;;3.53;;
17363;SDS011;8799;43.594;13.526;2022-07-06T01:30:18;4.70;;;3.27;;
17363;SDS011;8799;43.594;13.526;2022-07-06T01:32:46;4.83;;;2.93;;
17363;SDS011;8799;43.594;13.526;2022-07-06T01:35:14;4.43;;;3.00;;
17363;SDS011;8799;43.594;13.526;2022-07-06T01:37:43;5.13;;;3.50;;
17363;SDS011;8799;43.594;13.526;2022-07-06T01:40:11;6.80;;;3.20;;
17363;SDS011;8799;43.594;13.526;2022-07-06T01:42:39;7.53;;;3.40;;
17363;SDS011;8799;43.594;13.526;2022-07-06T01:45:08;4.87;;;3.20;;
17363;SDS011;8799;43.594;13.526;2022-07-06T01:47:36;5.53;;;3.30;;
17363;SDS011;8799;43.594;13.526;2022-07-06T01:50:05;9.27;;;3.33;;
17363;SDS011;8799;43.594;13.526;2022-07-06T01:52:34;3.63;;;3.10;;
17363;SDS011;8799;43.594;13.526;2022-07-06T01:55:04;6.67;;;3.43;;
17363;SDS011;8799;43.594;13.526;2022-07-06T01:57:32;7.57;;;3.20;;
17363;SDS011;8799;43.594;13.526;2022-07-06T02:00:05;8.67;;;3.37;;
17363;SDS011;8799;43.594;13.526;2022-07-06T02:02:55;4.83;;;2.97;;
17363;SDS011;8799;43.594;13.526;2022-07-06T02:05:23;5.53;;;3.50;;
17363;SDS011;8799;43.594;13.526;2022-07-06T02:07:51;5.90;;;3.20;;
17363;SDS011;8799;43.594;13.526;2022-07-06T02:10:21;5.47;;;3.70;;
17363;SDS011;8799;43.594;13.526;2022-07-06T02:12:49;6.20;;;3.17;;
17363;SDS011;8799;43.594;13.526;2022-07-06T02:15:17;5.20;;;3.33;;
17363;SDS011;8799;43.594;13.526;2022-07-06T02:17:45;10.07;;;3.77;;
17363;SDS011;8799;43.594;13.526;2022-07-06T02:20:12;9.10;;;3.47;;
17363;SDS011;8799;43.594;13.526;2022-07-06T02:22:40;4.67;;;3.17;;
17363;SDS011;8799;43.594;13.526;2022-07-06T02:25:08;6.17;;;3.30;;
17363;SDS011;8799;43.594;13.526;2022-07-06T02:27:37;6.07;;;3.00;;
17363;SDS011;8799;43.594;13.526;2022-07-06T02:30:05;5.43;;;3.23;;
17363;SDS011;8799;43.594;13.526;2022-07-06T02:32:33;5.43;;;3.00;;
17363;SDS011;8799;43.594;13.526;2022-07-06T02:35:02;6.83;;;3.17;;
17363;SDS011;8799;43.594;13.526;2022-07-06T02:37:30;4.57;;;3.00;;
17363;SDS011;8799;43.594;13.526;2022-07-06T02:39:58;6.23;;;3.10;;
17363;SDS011;8799;43.594;13.526;2022-07-06T02:42:26;5.33;;;3.43;;
17363;SDS011;8799;43.594;13.526;2022-07-06T02:44:55;9.37;;;3.13;;
17363;SDS011;8799;43.594;13.526;2022-07-06T02:47:24;9.57;;;3.20;;
17363;SDS011;8799;43.594;13.526;2022-07-06T02:49:52;6.53;;;3.00;;
17363;SDS011;8799;43.594;13.526;2022-07-06T02:52:19;9.70;;;3.23;;
17363;SDS011;8799;43.594;13.526;2022-07-06T02:54:47;4.97;;;3.10;;
17363;SDS011;8799;43.594;13.526;2022-07-06T02:57:15;10.83;;;3.53;;
17363;SDS011;8799;43.594;13.526;2022-07-06T02:59:43;5.27;;;3.63;;
17363;SDS011;8799;43.594;13.526;2022-07-06T03:02:13;8.07;;;3.77;;
17363;SDS011;8799;43.594;13.526;2022-07-06T03:04:40;6.57;;;3.80;;
17363;SDS011;8799;43.594;13.526;2022-07-06T03:07:08;6.80;;;4.00;;
17363;SDS011;8799;43.594;13.526;2022-07-06T03:09:37;6.57;;;3.97;;
17363;SDS011;8799;43.594;13.526;2022-07-06T03:12:05;5.73;;;3.57;;
17363;SDS011;8799;43.594;13.526;2022-07-06T03:14:33;9.73;;;4.30;;
17363;SDS011;8799;43.594;13.526;2022-07-06T03:17:01;8.00;;;3.23;;
17363;SDS011;8799;43.594;13.526;2022-07-06T03:19:31;8.33;;;3.90;;
17363;SDS011;8799;43.594;13.526;2022-07-06T03:22:00;7.57;;;4.30;;
17363;SDS011;8799;43.594;13.526;2022-07-06T03:24:27;5.97;;;3.80;;
17363;SDS011;8799;43.594;13.526;2022-07-06T03:26:55;10.47;;;4.10;;
17363;SDS011;8799;43.594;13.526;2022-07-06T03:29:23;8.70;;;3.97;;
17363;SDS011;8799;43.594;13.526;2022-07-06T03:31:51;6.30;;;3.73;;
17363;SDS011;8799;43.594;13.526;2022-07-06T03:34:18;6.47;;;3.93;;
17363;SDS011;8799;43.594;13.526;2022-07-06T03:36:51;8.37;;;4.03;;
17363;SDS011;8799;43.594;13.526;2022-07-06T03:39:19;9.67;;;3.90;;
17363;SDS011;8799;43.594;13.526;2022-07-06T03:41:46;10.57;;;4.20;;
17363;SDS011;8799;43.594;13.526;2022-07-06T03:44:14;8.40;;;4.00;;
17363;SDS011;8799;43.594;13.526;2022-07-06T03:46:42;8.13;;;3.53;;
17363;SDS011;8799;43.594;13.526;2022-07-06T03:49:09;5.83;;;3.93;;
17363;SDS011;8799;43.594;13.526;2022-07-06T03:51:37;8.73;;;3.63;;
17363;SDS011;8799;43.594;13.526;2022-07-06T03:54:06;10.83;;;3.93;;
17363;SDS011;8799;43.594;13.526;2022-07-06T03:56:35;8.23;;;3.40;;
17363;SDS011;8799;43.594;13.526;2022-07-06T03:59:04;7.83;;;3.57;;
17363;SDS011;8799;43.594;13.526;2022-07-06T04:01:32;7.53;;;3.90;;
17363;SDS011;8799;43.594;13.526;2022-07-06T04:04:00;7.33;;;4.60;;
17363;SDS011;8799;43.594;13.526;2022-07-06T04:06:28;10.60;;;5.37;;
17363;SDS011;8799;43.594;13.526;2022-07-06T04:08:55;9.03;;;6.03;;
17363;SDS011;8799;43.594;13.526;2022-07-06T04:11:24;9.33;;;6.30;;
17363;SDS011;8799;43.594;13.526;2022-07-06T04:13:52;10.03;;;5.93;;
17363;SDS011;8799;43.594;13.526;2022-07-06T04:16:19;10.60;;;6.37;;
17363;SDS011;8799;43.594;13.526;2022-07-06T04:18:48;7.50;;;5.43;;
17363;SDS011;8799;43.594;13.526;2022-07-06T04:21:15;11.10;;;5.80;;
17363;SDS011;8799;43.594;13.526;2022-07-06T04:23:44;9.43;;;5.43;;
17363;SDS011;8799;43.594;13.526;2022-07-06T04:26:12;7.97;;;6.00;;
17363;SDS011;8799;43.594;13.526;2022-07-06T04:28:42;9.97;;;6.13;;
17363;SDS011;8799;43.594;13.526;2022-07-06T04:31:09;11.60;;;5.80;;
17363;SDS011;8799;43.594;13.526;2022-07-06T04:33:40;9.27;;;5.70;;
17363;SDS011;8799;43.594;13.526;2022-07-06T04:36:09;11.43;;;5.80;;
17363;SDS011;8799;43.594;13.526;2022-07-06T04:38:37;9.90;;;6.40;;
17363;SDS011;8799;43.594;13.526;2022-07-06T04:41:05;12.07;;;5.70;;
17363;SDS011;8799;43.594;13.526;2022-07-06T04:43:33;11.13;;;5.67;;
17363;SDS011;8799;43.594;13.526;2022-07-06T04:46:02;9.00;;;5.60;;
17363;SDS011;8799;43.594;13.526;2022-07-06T04:48:31;14.10;;;5.90;;
17363;SDS011;8799;43.594;13.526;2022-07-06T04:51:01;9.43;;;5.33;;
17363;SDS011;8799;43.594;13.526;2022-07-06T04:53:30;12.77;;;6.07;;
17363;SDS011;8799;43.594;13.526;2022-07-06T04:55:58;13.97;;;6.20;;
17363;SDS011;8799;43.594;13.526;2022-07-06T04:58:26;7.40;;;4.77;;
17363;SDS011;8799;43.594;13.526;2022-07-06T05:00:54;10.17;;;5.17;;
17363;SDS011;8799;43.594;13.526;2022-07-06T05:03:23;8.50;;;5.20;;
17363;SDS011;8799;43.594;13.526;2022-07-06T05:05:51;12.80;;;6.13;;
17363;SDS011;8799;43.594;13.526;2022-07-06T05:08:20;8.87;;;5.37;;
17363;SDS011;8799;43.594;13.526;2022-07-06T05:10:48;13.27;;;5.03;;
17363;SDS011;8799;43.594;13.526;2022-07-06T05:13:19;7.67;;;4.63;;
17363;SDS011;8799;43.594;13.526;2022-07-06T05:15:47;12.53;;;5.40;;
17363;SDS011;8799;43.594;13.526;2022-07-06T05:18:15;9.53;;;5.07;;
17363;SDS011;8799;43.594;13.526;2022-07-06T05:20:44;10.97;;;5.40;;
17363;SDS011;8799;43.594;13.526;2022-07-06T05:23:12;7.30;;;5.07;;
17363;SDS011;8799;43.594;13.526;2022-07-06T05:25:40;12.67;;;5.40;;
17363;SDS011;8799;43.594;13.526;2022-07-06T05:28:09;10.93;;;5.27;;
17363;SDS011;8799;43.594;13.526;2022-07-06T05:30:36;8.43;;;5.37;;
17363;SDS011;8799;43.594;13.526;2022-07-06T05:33:04;8.23;;;5.00;;
17363;SDS011;8799;43.594;13.526;2022-07-06T05:35:32;11.20;;;5.27;;
17363;SDS011;8799;43.594;13.526;2022-07-06T05:38:02;6.70;;;4.83;;
17363;SDS011;8799;43.594;13.526;2022-07-06T05:40:29;7.10;;;4.67;;
17363;SDS011;8799;43.594;13.526;2022-07-06T05:42:57;11.50;;;4.67;;
17363;SDS011;8799;43.594;13.526;2022-07-06T05:45:25;7.17;;;4.30;;
17363;SDS011;8799;43.594;13.526;2022-07-06T05:47:57;8.23;;;4.53;;
17363;SDS011;8799;43.594;13.526;2022-07-06T05:50:41;10.20;;;4.47;;
17363;SDS011;8799;43.594;13.526;2022-07-06T05:53:11;6.67;;;4.30;;
17363;SDS011;8799;43.594;13.526;2022-07-06T05:55:45;6.67;;;4.13;;
17363;SDS011;8799;43.594;13.526;2022-07-06T05:58:14;10.03;;;4.40;;
17363;SDS011;8799;43.594;13.526;2022-07-06T06:00:42;5.87;;;4.43;;
17363;SDS011;8799;43.594;13.526;2022-07-06T06:03:09;7.47;;;3.97;;
17363;SDS011;8799;43.594;13.526;2022-07-06T06:05:37;8.60;;;4.10;;
17363;SDS011;8799;43.594;13.526;2022-07-06T06:08:05;11.97;;;4.00;;
17363;SDS011;8799;43.594;13.526;2022-07-06T06:10:34;8.17;;;3.90;;
17363;SDS011;8799;43.594;13.526;2022-07-06T06:13:02;6.73;;;3.83;;
17363;SDS011;8799;43.594;13.526;2022-07-06T06:15:30;8.77;;;3.93;;
17363;SDS011;8799;43.594;13.526;2022-07-06T06:17:59;6.37;;;3.77;;
17363;SDS011;8799;43.594;13.526;2022-07-06T06:20:27;6.40;;;3.60;;
17363;SDS011;8799;43.594;13.526;2022-07-06T06:22:55;6.30;;;3.67;;
17363;SDS011;8799;43.594;13.526;2022-07-06T06:25:27;10.23;;;4.13;;
17363;SDS011;8799;43.594;13.526;2022-07-06T06:27:57;6.60;;;4.10;;
17363;SDS011;8799;43.594;13.526;2022-07-06T06:30:26;5.93;;;4.10;;
17363;SDS011;8799;43.594;13.526;2022-07-06T06:33:04;8.27;;;4.03;;
17363;SDS011;8799;43.594;13.526;2022-07-06T06:35:33;5.90;;;3.37;;
17363;SDS011;8799;43.594;13.526;2022-07-06T06:38:00;8.67;;;3.97;;
17363;SDS011;8799;43.594;13.526;2022-07-06T06:40:28;6.27;;;3.63;;
17363;SDS011;8799;43.594;13.526;2022-07-06T06:42:58;8.33;;;4.03;;
17363;SDS011;8799;43.594;13.526;2022-07-06T06:45:26;8.33;;;3.77;;
17363;SDS011;8799;43.594;13.526;2022-07-06T06:47:53;5.83;;;3.80;;
17363;SDS011;8799;43.594;13.526;2022-07-06T06:50:21;6.80;;;3.80;;
17363;SDS011;8799;43.594;13.526;2022-07-06T06:52:49;10.03;;;3.83;;
17363;SDS011;8799;43.594;13.526;2022-07-06T06:55:17;6.57;;;3.60;;
17363;SDS011;8799;43.594;13.526;2022-07-06T06:57:46;9.50;;;3.60;;
17363;SDS011;8799;43.594;13.526;2022-07-06T07:00:15;5.23;;;3.60;;
17363;SDS011;8799;43.594;13.526;2022-07-06T07:02:44;10.07;;;3.90;;
17363;SDS011;8799;43.594;13.526;2022-07-06T07:05:12;6.87;;;3.57;;
17363;SDS011;8799;43.594;13.526;2022-07-06T07:07:41;6.80;;;3.80;;
17363;SDS011;8799;43.594;13.526;2022-07-06T07:10:10;13.33;;;4.50;;
17363;SDS011;8799;43.594;13.526;2022-07-06T07:12:44;5.00;;;3.47;;
17363;SDS011;8799;43.594;13.526;2022-07-06T07:15:15;11.23;;;3.93;;
17363;SDS011;8799;43.594;13.526;2022-07-06T07:17:43;7.60;;;3.80;;
17363;SDS011;8799;43.594;13.526;2022-07-06T07:20:11;8.63;;;3.80;;
17363;SDS011;8799;43.594;13.526;2022-07-06T07:25:12;8.10;;;4.30;;
17363;SDS011;8799;43.594;13.526;2022-07-06T07:27:40;6.67;;;3.80;;
17363;SDS011;8799;43.594;13.526;2022-07-06T07:30:08;6.53;;;3.70;;
17363;SDS011;8799;43.594;13.526;2022-07-06T07:32:39;9.17;;;4.20;;
17363;SDS011;8799;43.594;13.526;2022-07-06T07:35:07;8.10;;;4.10;;
17363;SDS011;8799;43.594;13.526;2022-07-06T07:37:35;7.00;;;3.67;;
17363;SDS011;8799;43.594;13.526;2022-07-06T07:40:03;7.90;;;3.70;;
17363;SDS011;8799;43.594;13.526;2022-07-06T07:42:31;5.77;;;3.33;;
17363;SDS011;8799;43.594;13.526;2022-07-06T07:44:59;7.83;;;3.80;;
17363;SDS011;8799;43.594;13.526;2022-07-06T07:47:27;7.83;;;3.70;;
17363;SDS011;8799;43.594;13.526;2022-07-06T07:49:56;8.90;;;3.80;;
17363;SDS011;8799;43.594;13.526;2022-07-06T07:52:23;6.70;;;3.80;;
17363;SDS011;8799;43.594;13.526;2022-07-06T07:54:51;8.10;;;3.87;;
17363;SDS011;8799;43.594;13.526;2022-07-06T07:57:19;5.07;;;3.60;;
17363;SDS011;8799;43.594;13.526;2022-07-06T07:59:46;6.23;;;3.77;;
17363;SDS011;8799;43.594;13.526;2022-07-06T08:02:14;6.37;;;3.77;;
17363;SDS011;8799;43.594;13.526;2022-07-06T08:04:42;4.60;;;3.53;;
17363;SDS011;8799;43.594;13.526;2022-07-06T08:07:11;6.50;;;3.80;;
17363;SDS011;8799;43.594;13.526;2022-07-06T08:09:38;6.77;;;3.60;;
17363;SDS011;8799;43.594;13.526;2022-07-06T08:12:10;6.60;;;3.60;;
17363;SDS011;8799;43.594;13.526;2022-07-06T08:14:38;4.97;;;3.43;;
17363;SDS011;8799;43.594;13.526;2022-07-06T08:17:06;7.07;;;3.90;;
17363;SDS011;8799;43.594;13.526;2022-07-06T08:19:33;6.80;;;4.07;;
17363;SDS011;8799;43.594;13.526;2022-07-06T08:22:01;7.43;;;3.40;;
17363;SDS011;8799;43.594;13.526;2022-07-06T08:24:33;8.47;;;3.33;;
17363;SDS011;8799;43.594;13.526;2022-07-06T08:27:01;8.70;;;3.60;;
17363;SDS011;8799;43.594;13.526;2022-07-06T08:29:30;5.13;;;3.30;;
17363;SDS011;8799;43.594;13.526;2022-07-06T08:31:58;5.07;;;3.17;;
17363;SDS011;8799;43.594;13.526;2022-07-06T08:34:25;5.07;;;3.33;;
17363;SDS011;8799;43.594;13.526;2022-07-06T08:36:53;4.17;;;2.83;;
17363;SDS011;8799;43.594;13.526;2022-07-06T08:39:21;6.47;;;2.93;;
17363;SDS011;8799;43.594;13.526;2022-07-06T08:41:50;4.47;;;2.80;;
17363;SDS011;8799;43.594;13.526;2022-07-06T08:44:18;4.53;;;2.90;;
17363;SDS011;8799;43.594;13.526;2022-07-06T08:46:46;4.33;;;2.90;;
17363;SDS011;8799;43.594;13.526;2022-07-06T08:49:18;6.27;;;3.20;;
17363;SDS011;8799;43.594;13.526;2022-07-06T08:51:47;5.87;;;3.47;;
17363;SDS011;8799;43.594;13.526;2022-07-06T08:54:15;5.17;;;3.23;;
17363;SDS011;8799;43.594;13.526;2022-07-06T08:56:43;5.87;;;3.37;;
17363;SDS011;8799;43.594;13.526;2022-07-06T08:59:13;3.97;;;2.90;;
17363;SDS011;8799;43.594;13.526;2022-07-06T09:01:41;6.37;;;3.67;;
17363;SDS011;8799;43.594;13.526;2022-07-06T09:04:11;6.90;;;3.73;;
17363;SDS011;8799;43.594;13.526;2022-07-06T09:06:40;5.40;;;3.37;;
17363;SDS011;8799;43.594;13.526;2022-07-06T09:09:10;6.20;;;3.70;;
17363;SDS011;8799;43.594;13.526;2022-07-06T09:11:38;5.63;;;3.50;;
17363;SDS011;8799;43.594;13.526;2022-07-06T09:14:06;7.07;;;3.30;;
17363;SDS011;8799;43.594;13.526;2022-07-06T09:16:35;5.57;;;3.80;;
17363;SDS011;8799;43.594;13.526;2022-07-06T09:19:04;6.03;;;3.43;;
17363;SDS011;8799;43.594;13.526;2022-07-06T09:21:33;5.53;;;3.43;;
17363;SDS011;8799;43.594;13.526;2022-07-06T09:24:02;6.30;;;3.30;;
17363;SDS011;8799;43.594;13.526;2022-07-06T09:26:34;5.10;;;3.00;;
17363;SDS011;8799;43.594;13.526;2022-07-06T09:29:02;4.43;;;3.20;;
17363;SDS011;8799;43.594;13.526;2022-07-06T09:31:30;4.10;;;3.00;;
17363;SDS011;8799;43.594;13.526;2022-07-06T09:34:00;5.40;;;2.97;;
17363;SDS011;8799;43.594;13.526;2022-07-06T09:36:36;5.40;;;2.63;;
17363;SDS011;8799;43.594;13.526;2022-07-06T09:39:15;5.80;;;2.70;;
17363;SDS011;8799;43.594;13.526;2022-07-06T09:41:47;3.97;;;2.90;;
17363;SDS011;8799;43.594;13.526;2022-07-06T09:44:20;4.00;;;2.83;;
17363;SDS011;8799;43.594;13.526;2022-07-06T09:46:49;6.43;;;2.63;;
17363;SDS011;8799;43.594;13.526;2022-07-06T09:49:19;3.87;;;2.87;;
17363;SDS011;8799;43.594;13.526;2022-07-06T09:51:48;3.67;;;2.50;;
17363;SDS011;8799;43.594;13.526;2022-07-06T09:54:17;3.63;;;2.50;;
17363;SDS011;8799;43.594;13.526;2022-07-06T09:56:46;5.63;;;2.30;;
17363;SDS011;8799;43.594;13.526;2022-07-06T09:59:16;3.50;;;2.73;;
17363;SDS011;8799;43.594;13.526;2022-07-06T10:01:46;5.47;;;2.57;;
17363;SDS011;8799;43.594;13.526;2022-07-06T10:04:17;3.23;;;2.40;;
17363;SDS011;8799;43.594;13.526;2022-07-06T10:06:46;4.20;;;2.57;;
17363;SDS011;8799;43.594;13.526;2022-07-06T10:09:14;3.60;;;2.50;;
17363;SDS011;8799;43.594;13.526;2022-07-06T10:11:45;4.60;;;2.50;;
17363;SDS011;8799;43.594;13.526;2022-07-06T10:14:17;3.37;;;2.50;;
17363;SDS011;8799;43.594;13.526;2022-07-06T10:16:46;5.10;;;2.90;;
17363;SDS011;8799;43.594;13.526;2022-07-06T10:19:16;5.33;;;2.73;;
17363;SDS011;8799;43.594;13.526;2022-07-06T10:21:46;4.07;;;2.43;;
17363;SDS011;8799;43.594;13.526;2022-07-06T10:24:14;3.23;;;2.67;;
17363;SDS011;8799;43.594;13.526;2022-07-06T10:26:42;5.67;;;2.50;;
17363;SDS011;8799;43.594;13.526;2022-07-06T10:29:10;5.17;;;2.70;;
17363;SDS011;8799;43.594;13.526;2022-07-06T10:31:38;5.00;;;2.77;;
17363;SDS011;8799;43.594;13.526;2022-07-06T10:34:09;4.53;;;2.63;;
17363;SDS011;8799;43.594;13.526;2022-07-06T10:36:39;3.53;;;2.23;;
17363;SDS011;8799;43.594;13.526;2022-07-06T10:39:09;4.90;;;2.57;;
17363;SDS011;8799;43.594;13.526;2022-07-06T10:41:55;3.60;;;2.50;;
17363;SDS011;8799;43.594;13.526;2022-07-06T10:44:23;3.20;;;2.47;;
17363;SDS011;8799;43.594;13.526;2022-07-06T10:46:52;2.60;;;2.40;;
17363;SDS011;8799;43.594;13.526;2022-07-06T10:49:21;6.10;;;2.77;;
17363;SDS011;8799;43.594;13.526;2022-07-06T10:51:49;4.80;;;2.53;;
17363;SDS011;8799;43.594;13.526;2022-07-06T10:54:19;7.37;;;2.40;;
17363;SDS011;8799;43.594;13.526;2022-07-06T10:56:48;4.37;;;2.20;;
17363;SDS011;8799;43.594;13.526;2022-07-06T10:59:17;4.07;;;2.53;;
17363;SDS011;8799;43.594;13.526;2022-07-06T11:04:41;3.03;;;2.30;;
17363;SDS011;8799;43.594;13.526;2022-07-06T11:07:10;3.73;;;2.20;;
17363;SDS011;8799;43.594;13.526;2022-07-06T11:09:40;3.73;;;2.40;;
17363;SDS011;8799;43.594;13.526;2022-07-06T11:12:14;3.27;;;2.20;;
17363;SDS011;8799;43.594;13.526;2022-07-06T11:14:43;2.83;;;2.40;;
17363;SDS011;8799;43.594;13.526;2022-07-06T11:17:11;4.13;;;2.33;;
17363;SDS011;8799;43.594;13.526;2022-07-06T11:19:47;2.67;;;2.30;;
17363;SDS011;8799;43.594;13.526;2022-07-06T11:22:16;2.83;;;2.03;;
17363;SDS011;8799;43.594;13.526;2022-07-06T11:24:46;2.77;;;2.30;;
17363;SDS011;8799;43.594;13.526;2022-07-06T11:27:14;2.87;;;2.17;;
17363;SDS011;8799;43.594;13.526;2022-07-06T11:29:41;2.90;;;2.20;;
17363;SDS011;8799;43.594;13.526;2022-07-06T11:32:10;3.67;;;2.47;;
17363;SDS011;8799;43.594;13.526;2022-07-06T11:34:40;5.50;;;2.43;;
17363;SDS011;8799;43.594;13.526;2022-07-06T11:37:09;2.20;;;2.00;;
17363;SDS011;8799;43.594;13.526;2022-07-06T11:39:39;3.87;;;2.40;;
17363;SDS011;8799;43.594;13.526;2022-07-06T11:42:09;5.30;;;2.47;;
17363;SDS011;8799;43.594;13.526;2022-07-06T11:44:39;4.13;;;2.33;;
17363;SDS011;8799;43.594;13.526;2022-07-06T11:47:09;3.23;;;2.17;;
17363;SDS011;8799;43.594;13.526;2022-07-06T11:49:38;2.97;;;2.40;;
17363;SDS011;8799;43.594;13.526;2022-07-06T11:52:07;8.00;;;2.33;;
17363;SDS011;8799;43.594;13.526;2022-07-06T11:54:35;3.27;;;2.17;;
17363;SDS011;8799;43.594;13.526;2022-07-06T11:57:04;3.53;;;2.33;;
17363;SDS011;8799;43.594;13.526;2022-07-06T11:59:36;2.50;;;2.17;;
17363;SDS011;8799;43.594;13.526;2022-07-06T12:02:05;4.00;;;2.23;;
17363;SDS011;8799;43.594;13.526;2022-07-06T12:04:34;2.90;;;1.90;;
17363;SDS011;8799;43.594;13.526;2022-07-06T12:07:04;2.27;;;1.83;;
17363;SDS011;8799;43.594;13.526;2022-07-06T12:09:32;3.20;;;2.27;;
17363;SDS011;8799;43.594;13.526;2022-07-06T12:12:01;4.90;;;2.03;;
17363;SDS011;8799;43.594;13.526;2022-07-06T12:14:30;5.43;;;2.13;;
17363;SDS011;8799;43.594;13.526;2022-07-06T12:17:03;2.40;;;2.13;;
17363;SDS011;8799;43.594;13.526;2022-07-06T12:19:32;4.17;;;2.37;;
17363;SDS011;8799;43.594;13.526;2022-07-06T12:22:02;7.47;;;2.77;;
17363;SDS011;8799;43.594;13.526;2022-07-06T12:24:31;4.07;;;2.20;;
17363;SDS011;8799;43.594;13.526;2022-07-06T12:27:09;5.77;;;2.20;;
17363;SDS011;8799;43.594;13.526;2022-07-06T12:29:38;5.80;;;2.50;;
17363;SDS011;8799;43.594;13.526;2022-07-06T12:32:13;8.83;;;2.37;;
17363;SDS011;8799;43.594;13.526;2022-07-06T12:34:42;6.67;;;2.40;;
17363;SDS011;8799;43.594;13.526;2022-07-06T12:37:10;6.63;;;2.20;;
17363;SDS011;8799;43.594;13.526;2022-07-06T12:39:40;5.30;;;2.30;;
17363;SDS011;8799;43.594;13.526;2022-07-06T12:42:09;4.93;;;2.20;;
17363;SDS011;8799;43.594;13.526;2022-07-06T12:44:41;4.97;;;2.20;;
17363;SDS011;8799;43.594;13.526;2022-07-06T12:47:11;3.97;;;2.20;;
17363;SDS011;8799;43.594;13.526;2022-07-06T12:49:43;2.63;;;2.37;;
17363;SDS011;8799;43.594;13.526;2022-07-06T12:52:11;3.80;;;2.40;;
17363;SDS011;8799;43.594;13.526;2022-07-06T12:54:40;8.77;;;2.37;;
17363;SDS011;8799;43.594;13.526;2022-07-06T12:57:10;6.30;;;2.20;;
17363;SDS011;8799;43.594;13.526;2022-07-06T12:59:43;3.10;;;2.13;;
17363;SDS011;8799;43.594;13.526;2022-07-06T13:02:19;3.30;;;2.27;;
17363;SDS011;8799;43.594;13.526;2022-07-06T13:04:55;7.93;;;2.10;;
17363;SDS011;8799;43.594;13.526;2022-07-06T13:07:24;6.20;;;2.30;;
17363;SDS011;8799;43.594;13.526;2022-07-06T13:09:52;2.50;;;2.17;;
17363;SDS011;8799;43.594;13.526;2022-07-06T13:12:21;2.77;;;1.87;;
17363;SDS011;8799;43.594;13.526;2022-07-06T13:14:49;2.53;;;1.93;;
17363;SDS011;8799;43.594;13.526;2022-07-06T13:17:19;3.93;;;2.63;;
17363;SDS011;8799;43.594;13.526;2022-07-06T13:19:46;3.50;;;2.23;;
17363;SDS011;8799;43.594;13.526;2022-07-06T13:22:14;3.00;;;2.23;;
17363;SDS011;8799;43.594;13.526;2022-07-06T13:24:42;3.37;;;2.07;;
17363;SDS011;8799;43.594;13.526;2022-07-06T13:27:09;3.77;;;2.27;;
17363;SDS011;8799;43.594;13.526;2022-07-06T13:29:37;3.93;;;2.00;;
17363;SDS011;8799;43.594;13.526;2022-07-06T13:32:05;2.13;;;1.90;;
17363;SDS011;8799;43.594;13.526;2022-07-06T13:34:35;2.13;;;1.80;;
17363;SDS011;8799;43.594;13.526;2022-07-06T13:37:03;2.20;;;2.00;;
17363;SDS011;8799;43.594;13.526;2022-07-06T13:39:31;3.27;;;1.87;;
17363;SDS011;8799;43.594;13.526;2022-07-06T13:41:59;2.80;;;2.17;;
17363;SDS011;8799;43.594;13.526;2022-07-06T13:44:27;3.60;;;2.57;;
17363;SDS011;8799;43.594;13.526;2022-07-06T13:46:55;3.43;;;2.07;;
17363;SDS011;8799;43.594;13.526;2022-07-06T13:49:22;4.37;;;2.40;;
17363;SDS011;8799;43.594;13.526;2022-07-06T13:51:52;4.00;;;2.33;;
17363;SDS011;8799;43.594;13.526;2022-07-06T13:54:27;2.73;;;1.90;;
17363;SDS011;8799;43.594;13.526;2022-07-06T13:56:55;5.33;;;2.93;;
17363;SDS011;8799;43.594;13.526;2022-07-06T13:59:23;3.17;;;2.00;;
17363;SDS011;8799;43.594;13.526;2022-07-06T14:01:50;3.53;;;2.20;;
17363;SDS011;8799;43.594;13.526;2022-07-06T14:04:18;2.30;;;1.90;;
17363;SDS011;8799;43.594;13.526;2022-07-06T14:06:46;2.10;;;1.90;;
17363;SDS011;8799;43.594;13.526;2022-07-06T14:09:15;2.43;;;1.87;;
17363;SDS011;8799;43.594;13.526;2022-07-06T14:11:42;7.33;;;2.30;;
17363;SDS011;8799;43.594;13.526;2022-07-06T14:14:10;5.03;;;2.07;;
17363;SDS011;8799;43.594;13.526;2022-07-06T14:16:38;8.70;;;3.03;;
17363;SDS011;8799;43.594;13.526;2022-07-06T14:19:06;4.07;;;2.27;;
17363;SDS011;8799;43.594;13.526;2022-07-06T14:21:33;4.20;;;2.30;;
17363;SDS011;8799;43.594;13.526;2022-07-06T14:24:01;11.03;;;2.20;;
17363;SDS011;8799;43.594;13.526;2022-07-06T14:26:30;9.57;;;2.30;;
17363;SDS011;8799;43.594;13.526;2022-07-06T14:28:58;4.97;;;2.37;;
17363;SDS011;8799;43.594;13.526;2022-07-06T14:31:25;6.43;;;2.53;;
17363;SDS011;8799;43.594;13.526;2022-07-06T14:33:53;7.60;;;2.20;;
17363;SDS011;8799;43.594;13.526;2022-07-06T14:36:21;6.80;;;2.40;;
17363;SDS011;8799;43.594;13.526;2022-07-06T14:38:49;12.70;;;2.50;;
17363;SDS011;8799;43.594;13.526;2022-07-06T14:41:16;4.90;;;2.20;;
17363;SDS011;8799;43.594;13.526;2022-07-06T14:43:45;5.13;;;2.27;;
17363;SDS011;8799;43.594;13.526;2022-07-06T14:46:13;6.10;;;2.33;;
17363;SDS011;8799;43.594;13.526;2022-07-06T14:48:41;4.93;;;2.17;;
17363;SDS011;8799;43.594;13.526;2022-07-06T14:51:09;5.40;;;2.33;;
17363;SDS011;8799;43.594;13.526;2022-07-06T14:53:36;3.80;;;2.47;;
17363;SDS011;8799;43.594;13.526;2022-07-06T14:56:04;5.03;;;2.33;;
17363;SDS011;8799;43.594;13.526;2022-07-06T14:58:31;2.27;;;2.07;;
17363;SDS011;8799;43.594;13.526;2022-07-06T15:01:00;4.23;;;2.03;;